sensor_id;sensor_type;location;lat;lon;timestamp;P1;durP1;ratioP1;P2;durP2;ratioP2
59854;SDS011;45732;52.850;6.896;2023-03-17T00:00:48;7.20;;;3.60;;
59854;SDS011;45732;52.850;6.896;2023-03-17T00:03:24;7.35;;;3.33;;
59854;SDS011;45732;52.850;6.896;2023-03-17T00:05:53;6.82;;;3.50;;
59854;SDS011;45732;52.850;6.896;2023-03-17T00:08:28;7.78;;;3.17;;
59854;SDS011;45732;52.850;6.896;2023-03-17T00:11:00;6.38;;;3.45;;
59854;SDS011;45732;52.850;6.896;2023-03-17T00:13:26;9.93;;;3.53;;
59854;SDS011;45732;52.850;6.896;2023-03-17T00:15:55;6.55;;;3.20;;
59854;SDS011;45732;52.850;6.896;2023-03-17T00:18:25;7.13;;;3.38;;
59854;SDS011;45732;52.850;6.896;2023-03-17T00:20:51;5.85;;;3.20;;
59854;SDS011;45732;52.850;6.896;2023-03-17T00:23:18;6.65;;;3.50;;
59854;SDS011;45732;52.850;6.896;2023-03-17T00:25:46;6.88;;;3.50;;
59854;SDS011;45732;52.850;6.896;2023-03-17T00:30:43;9.15;;;3.78;;
59854;SDS011;45732;52.850;6.896;2023-03-17T00:33:10;8.88;;;3.50;;
59854;SDS011;45732;52.850;6.896;2023-03-17T00:35:36;8.70;;;3.95;;
59854;SDS011;45732;52.850;6.896;2023-03-17T00:38:05;6.57;;;3.60;;
59854;SDS011;45732;52.850;6.896;2023-03-17T00:40:33;9.10;;;3.85;;
59854;SDS011;45732;52.850;6.896;2023-03-17T00:43:00;6.95;;;3.80;;
59854;SDS011;45732;52.850;6.896;2023-03-17T00:45:29;5.95;;;3.63;;
59854;SDS011;45732;52.850;6.896;2023-03-17T00:47:55;7.22;;;3.83;;
59854;SDS011;45732;52.850;6.896;2023-03-17T00:50:22;7.82;;;3.92;;
59854;SDS011;45732;52.850;6.896;2023-03-17T00:52:51;7.15;;;3.75;;
59854;SDS011;45732;52.850;6.896;2023-03-17T00:55:18;8.88;;;4.43;;
59854;SDS011;45732;52.850;6.896;2023-03-17T00:57:45;7.10;;;4.20;;
59854;SDS011;45732;52.850;6.896;2023-03-17T01:00:23;6.10;;;4.00;;
59854;SDS011;45732;52.850;6.896;2023-03-17T01:02:54;6.88;;;4.28;;
59854;SDS011;45732;52.850;6.896;2023-03-17T01:05:24;7.13;;;4.05;;
59854;SDS011;45732;52.850;6.896;2023-03-17T01:07:52;7.95;;;4.10;;
59854;SDS011;45732;52.850;6.896;2023-03-17T01:10:23;6.90;;;3.88;;
59854;SDS011;45732;52.850;6.896;2023-03-17T01:12:51;7.88;;;4.25;;
59854;SDS011;45732;52.850;6.896;2023-03-17T01:15:18;7.18;;;3.90;;
59854;SDS011;45732;52.850;6.896;2023-03-17T01:17:45;8.63;;;4.20;;
59854;SDS011;45732;52.850;6.896;2023-03-17T01:20:17;8.07;;;4.22;;
59854;SDS011;45732;52.850;6.896;2023-03-17T01:22:45;7.80;;;4.30;;
59854;SDS011;45732;52.850;6.896;2023-03-17T01:25:12;8.52;;;4.50;;
59854;SDS011;45732;52.850;6.896;2023-03-17T01:27:39;8.25;;;4.15;;
59854;SDS011;45732;52.850;6.896;2023-03-17T01:30:09;7.43;;;4.28;;
59854;SDS011;45732;52.850;6.896;2023-03-17T01:32:43;10.93;;;4.35;;
59854;SDS011;45732;52.850;6.896;2023-03-17T01:35:09;8.10;;;4.20;;
59854;SDS011;45732;52.850;6.896;2023-03-17T01:37:35;8.70;;;4.50;;
59854;SDS011;45732;52.850;6.896;2023-03-17T01:40:02;8.85;;;4.35;;
59854;SDS011;45732;52.850;6.896;2023-03-17T01:42:28;8.30;;;4.45;;
59854;SDS011;45732;52.850;6.896;2023-03-17T01:47:26;9.90;;;4.75;;
59854;SDS011;45732;52.850;6.896;2023-03-17T01:49:54;7.65;;;4.47;;
59854;SDS011;45732;52.850;6.896;2023-03-17T01:52:22;9.52;;;4.63;;
59854;SDS011;45732;52.850;6.896;2023-03-17T01:57:28;10.20;;;5.03;;
59854;SDS011;45732;52.850;6.896;2023-03-17T01:59:59;9.07;;;4.50;;
59854;SDS011;45732;52.850;6.896;2023-03-17T02:02:30;8.13;;;4.55;;
59854;SDS011;45732;52.850;6.896;2023-03-17T02:04:59;9.95;;;4.70;;
59854;SDS011;45732;52.850;6.896;2023-03-17T02:07:25;7.57;;;4.85;;
59854;SDS011;45732;52.850;6.896;2023-03-17T02:09:52;8.88;;;4.93;;
59854;SDS011;45732;52.850;6.896;2023-03-17T02:12:20;7.43;;;4.18;;
59854;SDS011;45732;52.850;6.896;2023-03-17T02:14:48;7.72;;;4.78;;
59854;SDS011;45732;52.850;6.896;2023-03-17T02:17:16;7.50;;;4.80;;
59854;SDS011;45732;52.850;6.896;2023-03-17T02:19:43;7.32;;;4.50;;
59854;SDS011;45732;52.850;6.896;2023-03-17T02:22:09;8.10;;;4.60;;
59854;SDS011;45732;52.850;6.896;2023-03-17T02:27:14;11.35;;;5.22;;
59854;SDS011;45732;52.850;6.896;2023-03-17T02:29:47;7.32;;;4.80;;
59854;SDS011;45732;52.850;6.896;2023-03-17T02:32:13;8.18;;;4.72;;
59854;SDS011;45732;52.850;6.896;2023-03-17T02:34:42;7.80;;;5.20;;
59854;SDS011;45732;52.850;6.896;2023-03-17T02:37:08;8.05;;;4.80;;
59854;SDS011;45732;52.850;6.896;2023-03-17T02:39:34;8.48;;;5.00;;
59854;SDS011;45732;52.850;6.896;2023-03-17T02:42:01;7.60;;;4.45;;
59854;SDS011;45732;52.850;6.896;2023-03-17T02:44:28;7.57;;;4.75;;
59854;SDS011;45732;52.850;6.896;2023-03-17T02:46:54;8.05;;;4.95;;
59854;SDS011;45732;52.850;6.896;2023-03-17T02:49:20;8.18;;;4.80;;
59854;SDS011;45732;52.850;6.896;2023-03-17T02:51:46;7.68;;;5.00;;
59854;SDS011;45732;52.850;6.896;2023-03-17T02:54:12;7.85;;;5.03;;
59854;SDS011;45732;52.850;6.896;2023-03-17T02:56:38;8.30;;;5.10;;
59854;SDS011;45732;52.850;6.896;2023-03-17T02:59:05;7.47;;;4.72;;
59854;SDS011;45732;52.850;6.896;2023-03-17T03:01:31;9.90;;;4.68;;
59854;SDS011;45732;52.850;6.896;2023-03-17T03:03:57;11.10;;;4.78;;
59854;SDS011;45732;52.850;6.896;2023-03-17T03:06:23;8.82;;;5.00;;
59854;SDS011;45732;52.850;6.896;2023-03-17T03:08:50;8.10;;;4.93;;
59854;SDS011;45732;52.850;6.896;2023-03-17T03:11:16;7.63;;;4.57;;
59854;SDS011;45732;52.850;6.896;2023-03-17T03:13:42;7.70;;;4.65;;
59854;SDS011;45732;52.850;6.896;2023-03-17T03:16:08;8.10;;;4.22;;
59854;SDS011;45732;52.850;6.896;2023-03-17T03:18:34;8.50;;;4.40;;
59854;SDS011;45732;52.850;6.896;2023-03-17T03:21:01;9.40;;;5.38;;
59854;SDS011;45732;52.850;6.896;2023-03-17T03:23:28;7.65;;;4.57;;
59854;SDS011;45732;52.850;6.896;2023-03-17T03:25:53;8.40;;;4.25;;
59854;SDS011;45732;52.850;6.896;2023-03-17T03:28:19;7.07;;;4.28;;
59854;SDS011;45732;52.850;6.896;2023-03-17T03:30:46;8.38;;;4.70;;
59854;SDS011;45732;52.850;6.896;2023-03-17T03:33:12;7.97;;;4.40;;
59854;SDS011;45732;52.850;6.896;2023-03-17T03:35:38;8.65;;;4.63;;
59854;SDS011;45732;52.850;6.896;2023-03-17T03:38:04;7.30;;;4.72;;
59854;SDS011;45732;52.850;6.896;2023-03-17T03:40:31;9.05;;;4.60;;
59854;SDS011;45732;52.850;6.896;2023-03-17T03:42:57;7.47;;;4.50;;
59854;SDS011;45732;52.850;6.896;2023-03-17T03:45:23;8.65;;;4.70;;
59854;SDS011;45732;52.850;6.896;2023-03-17T03:47:48;7.78;;;4.57;;
59854;SDS011;45732;52.850;6.896;2023-03-17T03:50:14;7.20;;;4.25;;
59854;SDS011;45732;52.850;6.896;2023-03-17T03:52:40;7.80;;;4.70;;
59854;SDS011;45732;52.850;6.896;2023-03-17T03:55:06;8.10;;;4.70;;
59854;SDS011;45732;52.850;6.896;2023-03-17T03:57:33;8.45;;;4.50;;
59854;SDS011;45732;52.850;6.896;2023-03-17T03:59:59;8.60;;;4.93;;
59854;SDS011;45732;52.850;6.896;2023-03-17T04:02:25;7.90;;;4.50;;
59854;SDS011;45732;52.850;6.896;2023-03-17T04:04:51;9.30;;;4.63;;
59854;SDS011;45732;52.850;6.896;2023-03-17T04:07:18;8.57;;;4.60;;
59854;SDS011;45732;52.850;6.896;2023-03-17T04:09:45;7.72;;;4.18;;
59854;SDS011;45732;52.850;6.896;2023-03-17T04:12:13;7.78;;;4.13;;
59854;SDS011;45732;52.850;6.896;2023-03-17T04:14:40;8.27;;;4.60;;
59854;SDS011;45732;52.850;6.896;2023-03-17T04:17:08;6.90;;;4.55;;
59854;SDS011;45732;52.850;6.896;2023-03-17T04:19:38;6.75;;;4.22;;
59854;SDS011;45732;52.850;6.896;2023-03-17T04:22:04;8.05;;;4.63;;
59854;SDS011;45732;52.850;6.896;2023-03-17T04:24:31;6.53;;;4.55;;
59854;SDS011;45732;52.850;6.896;2023-03-17T04:26:58;7.18;;;4.50;;
59854;SDS011;45732;52.850;6.896;2023-03-17T04:29:25;8.02;;;4.45;;
59854;SDS011;45732;52.850;6.896;2023-03-17T04:31:51;8.48;;;4.80;;
59854;SDS011;45732;52.850;6.896;2023-03-17T04:34:18;7.72;;;4.38;;
59854;SDS011;45732;52.850;6.896;2023-03-17T04:36:44;7.28;;;4.35;;
59854;SDS011;45732;52.850;6.896;2023-03-17T04:39:11;7.45;;;4.78;;
59854;SDS011;45732;52.850;6.896;2023-03-17T04:41:37;9.20;;;4.82;;
59854;SDS011;45732;52.850;6.896;2023-03-17T04:44:03;6.75;;;4.15;;
59854;SDS011;45732;52.850;6.896;2023-03-17T04:46:29;7.30;;;4.38;;
59854;SDS011;45732;52.850;6.896;2023-03-17T04:48:55;8.07;;;4.60;;
59854;SDS011;45732;52.850;6.896;2023-03-17T04:51:21;8.55;;;4.32;;
59854;SDS011;45732;52.850;6.896;2023-03-17T04:53:48;8.73;;;4.57;;
59854;SDS011;45732;52.850;6.896;2023-03-17T04:56:14;8.48;;;4.90;;
59854;SDS011;45732;52.850;6.896;2023-03-17T04:58:40;9.77;;;4.45;;
59854;SDS011;45732;52.850;6.896;2023-03-17T05:01:06;8.43;;;4.65;;
59854;SDS011;45732;52.850;6.896;2023-03-17T05:03:32;8.15;;;4.78;;
59854;SDS011;45732;52.850;6.896;2023-03-17T05:05:58;8.23;;;4.28;;
59854;SDS011;45732;52.850;6.896;2023-03-17T05:08:25;7.20;;;4.50;;
59854;SDS011;45732;52.850;6.896;2023-03-17T05:10:52;8.52;;;4.63;;
59854;SDS011;45732;52.850;6.896;2023-03-17T05:13:19;7.70;;;4.50;;
59854;SDS011;45732;52.850;6.896;2023-03-17T05:15:48;9.07;;;4.68;;
59854;SDS011;45732;52.850;6.896;2023-03-17T05:18:16;7.93;;;4.40;;
59854;SDS011;45732;52.850;6.896;2023-03-17T05:20:42;8.88;;;4.50;;
59854;SDS011;45732;52.850;6.896;2023-03-17T05:23:08;11.55;;;9.35;;
59854;SDS011;45732;52.850;6.896;2023-03-17T05:25:35;9.80;;;4.82;;
59854;SDS011;45732;52.850;6.896;2023-03-17T05:28:01;8.85;;;4.95;;
59854;SDS011;45732;52.850;6.896;2023-03-17T05:30:27;7.35;;;4.75;;
59854;SDS011;45732;52.850;6.896;2023-03-17T05:32:53;9.45;;;5.78;;
59854;SDS011;45732;52.850;6.896;2023-03-17T05:35:18;9.07;;;5.80;;
59854;SDS011;45732;52.850;6.896;2023-03-17T05:37:44;7.55;;;4.57;;
59854;SDS011;45732;52.850;6.896;2023-03-17T05:40:11;8.75;;;4.90;;
59854;SDS011;45732;52.850;6.896;2023-03-17T05:42:38;7.82;;;4.63;;
59854;SDS011;45732;52.850;6.896;2023-03-17T05:45:06;11.48;;;4.57;;
59854;SDS011;45732;52.850;6.896;2023-03-17T05:47:32;9.20;;;4.78;;
59854;SDS011;45732;52.850;6.896;2023-03-17T05:49:59;7.15;;;4.30;;
59854;SDS011;45732;52.850;6.896;2023-03-17T05:52:25;8.50;;;4.47;;
59854;SDS011;45732;52.850;6.896;2023-03-17T05:54:52;9.65;;;4.88;;
59854;SDS011;45732;52.850;6.896;2023-03-17T05:57:18;8.88;;;5.38;;
59854;SDS011;45732;52.850;6.896;2023-03-17T05:59:45;7.43;;;4.40;;
59854;SDS011;45732;52.850;6.896;2023-03-17T06:02:11;8.32;;;4.60;;
59854;SDS011;45732;52.850;6.896;2023-03-17T06:04:37;9.93;;;5.32;;
59854;SDS011;45732;52.850;6.896;2023-03-17T06:07:03;9.05;;;4.78;;
59854;SDS011;45732;52.850;6.896;2023-03-17T06:09:30;9.73;;;5.15;;
59854;SDS011;45732;52.850;6.896;2023-03-17T06:11:57;7.30;;;4.90;;
59854;SDS011;45732;52.850;6.896;2023-03-17T06:14:24;9.25;;;5.00;;
59854;SDS011;45732;52.850;6.896;2023-03-17T06:16:50;9.13;;;4.13;;
59854;SDS011;45732;52.850;6.896;2023-03-17T06:19:15;9.77;;;4.85;;
59854;SDS011;45732;52.850;6.896;2023-03-17T06:21:41;9.30;;;4.80;;
59854;SDS011;45732;52.850;6.896;2023-03-17T06:24:07;9.05;;;4.72;;
59854;SDS011;45732;52.850;6.896;2023-03-17T06:26:33;8.20;;;4.55;;
59854;SDS011;45732;52.850;6.896;2023-03-17T06:29:01;7.45;;;4.18;;
59854;SDS011;45732;52.850;6.896;2023-03-17T06:31:28;7.63;;;4.43;;
59854;SDS011;45732;52.850;6.896;2023-03-17T06:33:54;8.80;;;4.47;;
59854;SDS011;45732;52.850;6.896;2023-03-17T06:36:21;8.07;;;4.07;;
59854;SDS011;45732;52.850;6.896;2023-03-17T06:38:48;9.57;;;4.07;;
59854;SDS011;45732;52.850;6.896;2023-03-17T06:41:14;9.90;;;3.92;;
59854;SDS011;45732;52.850;6.896;2023-03-17T06:43:40;7.38;;;3.78;;
59854;SDS011;45732;52.850;6.896;2023-03-17T06:46:06;7.38;;;4.10;;
59854;SDS011;45732;52.850;6.896;2023-03-17T06:48:32;9.45;;;3.90;;
59854;SDS011;45732;52.850;6.896;2023-03-17T06:50:58;6.45;;;3.90;;
59854;SDS011;45732;52.850;6.896;2023-03-17T06:53:25;7.00;;;4.30;;
59854;SDS011;45732;52.850;6.896;2023-03-17T06:55:50;8.57;;;4.65;;
59854;SDS011;45732;52.850;6.896;2023-03-17T06:58:16;8.27;;;5.68;;
59854;SDS011;45732;52.850;6.896;2023-03-17T07:00:42;7.55;;;4.60;;
59854;SDS011;45732;52.850;6.896;2023-03-17T07:03:11;9.07;;;4.65;;
59854;SDS011;45732;52.850;6.896;2023-03-17T07:05:37;10.23;;;5.38;;
59854;SDS011;45732;52.850;6.896;2023-03-17T07:08:03;7.95;;;5.75;;
59854;SDS011;45732;52.850;6.896;2023-03-17T07:10:30;6.28;;;3.40;;
59854;SDS011;45732;52.850;6.896;2023-03-17T07:12:56;8.10;;;3.95;;
59854;SDS011;45732;52.850;6.896;2023-03-17T07:15:23;6.88;;;4.90;;
59854;SDS011;45732;52.850;6.896;2023-03-17T07:17:48;5.93;;;3.33;;
59854;SDS011;45732;52.850;6.896;2023-03-17T07:20:15;6.45;;;3.58;;
59854;SDS011;45732;52.850;6.896;2023-03-17T07:22:40;7.15;;;3.25;;
59854;SDS011;45732;52.850;6.896;2023-03-17T07:25:07;7.78;;;4.65;;
59854;SDS011;45732;52.850;6.896;2023-03-17T07:27:33;5.75;;;3.35;;
59854;SDS011;45732;52.850;6.896;2023-03-17T07:30:00;9.55;;;3.13;;
59854;SDS011;45732;52.850;6.896;2023-03-17T07:32:28;5.88;;;3.35;;
59854;SDS011;45732;52.850;6.896;2023-03-17T07:34:55;7.40;;;3.35;;
59854;SDS011;45732;52.850;6.896;2023-03-17T07:37:21;4.88;;;2.97;;
59854;SDS011;45732;52.850;6.896;2023-03-17T07:39:47;8.30;;;3.28;;
59854;SDS011;45732;52.850;6.896;2023-03-17T07:42:14;8.50;;;3.75;;
59854;SDS011;45732;52.850;6.896;2023-03-17T07:44:41;5.10;;;2.90;;
59854;SDS011;45732;52.850;6.896;2023-03-17T07:47:08;7.07;;;3.58;;
59854;SDS011;45732;52.850;6.896;2023-03-17T07:49:36;6.97;;;3.55;;
59854;SDS011;45732;52.850;6.896;2023-03-17T07:52:02;8.00;;;4.97;;
59854;SDS011;45732;52.850;6.896;2023-03-17T07:54:28;7.00;;;3.20;;
59854;SDS011;45732;52.850;6.896;2023-03-17T07:56:54;7.10;;;3.90;;
59854;SDS011;45732;52.850;6.896;2023-03-17T07:59:20;7.93;;;5.80;;
59854;SDS011;45732;52.850;6.896;2023-03-17T08:01:47;7.40;;;3.45;;
59854;SDS011;45732;52.850;6.896;2023-03-17T08:04:13;10.65;;;5.10;;
59854;SDS011;45732;52.850;6.896;2023-03-17T08:06:40;6.25;;;3.20;;
59854;SDS011;45732;52.850;6.896;2023-03-17T08:09:07;5.05;;;2.95;;
59854;SDS011;45732;52.850;6.896;2023-03-17T08:11:34;6.07;;;3.20;;
59854;SDS011;45732;52.850;6.896;2023-03-17T08:14:00;7.68;;;3.53;;
59854;SDS011;45732;52.850;6.896;2023-03-17T08:16:27;8.25;;;3.42;;
59854;SDS011;45732;52.850;6.896;2023-03-17T08:18:53;7.38;;;3.50;;
59854;SDS011;45732;52.850;6.896;2023-03-17T08:21:19;6.57;;;3.42;;
59854;SDS011;45732;52.850;6.896;2023-03-17T08:23:45;7.28;;;3.17;;
59854;SDS011;45732;52.850;6.896;2023-03-17T08:26:11;6.78;;;3.00;;
59854;SDS011;45732;52.850;6.896;2023-03-17T08:28:38;7.90;;;3.17;;
59854;SDS011;45732;52.850;6.896;2023-03-17T08:31:08;8.55;;;3.30;;
59854;SDS011;45732;52.850;6.896;2023-03-17T08:33:36;7.22;;;3.42;;
59854;SDS011;45732;52.850;6.896;2023-03-17T08:36:03;9.77;;;4.70;;
59854;SDS011;45732;52.850;6.896;2023-03-17T08:38:30;7.45;;;3.72;;
59854;SDS011;45732;52.850;6.896;2023-03-17T08:41:03;6.60;;;3.25;;
59854;SDS011;45732;52.850;6.896;2023-03-17T08:43:30;8.40;;;4.18;;
59854;SDS011;45732;52.850;6.896;2023-03-17T08:46:08;6.57;;;3.40;;
59854;SDS011;45732;52.850;6.896;2023-03-17T08:48:37;9.30;;;3.47;;
59854;SDS011;45732;52.850;6.896;2023-03-17T08:51:04;6.32;;;3.45;;
59854;SDS011;45732;52.850;6.896;2023-03-17T08:53:31;7.13;;;3.15;;
59854;SDS011;45732;52.850;6.896;2023-03-17T08:55:59;6.75;;;3.33;;
59854;SDS011;45732;52.850;6.896;2023-03-17T08:58:25;6.07;;;3.08;;
59854;SDS011;45732;52.850;6.896;2023-03-17T09:00:51;7.47;;;3.35;;
59854;SDS011;45732;52.850;6.896;2023-03-17T09:03:18;8.68;;;3.72;;
59854;SDS011;45732;52.850;6.896;2023-03-17T09:05:45;7.45;;;2.97;;
59854;SDS011;45732;52.850;6.896;2023-03-17T09:08:11;10.18;;;3.38;;
59854;SDS011;45732;52.850;6.896;2023-03-17T09:10:37;6.80;;;3.33;;
59854;SDS011;45732;52.850;6.896;2023-03-17T09:13:03;8.65;;;3.53;;
59854;SDS011;45732;52.850;6.896;2023-03-17T09:15:30;6.45;;;3.40;;
59854;SDS011;45732;52.850;6.896;2023-03-17T09:17:57;6.95;;;3.45;;
59854;SDS011;45732;52.850;6.896;2023-03-17T09:20:23;6.47;;;3.28;;
59854;SDS011;45732;52.850;6.896;2023-03-17T09:22:49;7.32;;;3.35;;
59854;SDS011;45732;52.850;6.896;2023-03-17T09:25:15;7.35;;;3.75;;
59854;SDS011;45732;52.850;6.896;2023-03-17T09:27:42;7.28;;;3.13;;
59854;SDS011;45732;52.850;6.896;2023-03-17T09:30:08;8.35;;;3.60;;
59854;SDS011;45732;52.850;6.896;2023-03-17T09:32:37;6.80;;;3.17;;
59854;SDS011;45732;52.850;6.896;2023-03-17T09:35:04;10.35;;;3.50;;
59854;SDS011;45732;52.850;6.896;2023-03-17T09:37:30;7.80;;;3.35;;
59854;SDS011;45732;52.850;6.896;2023-03-17T09:39:56;7.78;;;3.70;;
59854;SDS011;45732;52.850;6.896;2023-03-17T09:50:49;8.02;;;3.90;;
59854;SDS011;45732;52.850;6.896;2023-03-17T09:53:35;7.63;;;3.80;;
59854;SDS011;45732;52.850;6.896;2023-03-17T09:56:06;8.38;;;3.75;;
59854;SDS011;45732;52.850;6.896;2023-03-17T09:58:36;8.50;;;4.13;;
59854;SDS011;45732;52.850;6.896;2023-03-17T10:01:07;7.75;;;3.65;;
59854;SDS011;45732;52.850;6.896;2023-03-17T10:03:34;6.82;;;3.97;;
59854;SDS011;45732;52.850;6.896;2023-03-17T10:06:14;8.38;;;3.88;;
59854;SDS011;45732;52.850;6.896;2023-03-17T10:09:06;8.63;;;4.13;;
59854;SDS011;45732;52.850;6.896;2023-03-17T10:11:42;7.25;;;3.88;;
59854;SDS011;45732;52.850;6.896;2023-03-17T10:19:58;9.75;;;4.15;;
59854;SDS011;45732;52.850;6.896;2023-03-17T10:25:09;8.35;;;4.70;;
59854;SDS011;45732;52.850;6.896;2023-03-17T10:27:39;7.88;;;4.25;;
59854;SDS011;45732;52.850;6.896;2023-03-17T10:30:16;8.88;;;4.47;;
59854;SDS011;45732;52.850;6.896;2023-03-17T10:32:45;9.07;;;4.55;;
59854;SDS011;45732;52.850;6.896;2023-03-17T10:35:11;7.90;;;4.53;;
59854;SDS011;45732;52.850;6.896;2023-03-17T10:37:39;8.80;;;4.70;;
59854;SDS011;45732;52.850;6.896;2023-03-17T10:40:05;9.70;;;4.30;;
59854;SDS011;45732;52.850;6.896;2023-03-17T10:42:43;8.75;;;4.88;;
59854;SDS011;45732;52.850;6.896;2023-03-17T10:47:46;8.10;;;4.43;;
59854;SDS011;45732;52.850;6.896;2023-03-17T10:50:20;9.35;;;4.35;;
59854;SDS011;45732;52.850;6.896;2023-03-17T10:52:57;8.35;;;4.95;;
59854;SDS011;45732;52.850;6.896;2023-03-17T10:55:26;8.25;;;4.80;;
59854;SDS011;45732;52.850;6.896;2023-03-17T11:00:25;7.55;;;4.47;;
59854;SDS011;45732;52.850;6.896;2023-03-17T11:02:57;11.63;;;4.88;;
59854;SDS011;45732;52.850;6.896;2023-03-17T11:05:27;9.55;;;4.72;;
59854;SDS011;45732;52.850;6.896;2023-03-17T11:08:37;9.02;;;4.55;;
59854;SDS011;45732;52.850;6.896;2023-03-17T11:10:43;10.25;;;5.00;;
59854;SDS011;45732;52.850;6.896;2023-03-17T11:13:14;11.68;;;5.00;;
59854;SDS011;45732;52.850;6.896;2023-03-17T11:16:17;9.77;;;4.55;;
59854;SDS011;45732;52.850;6.896;2023-03-17T11:18:35;10.70;;;5.30;;
59854;SDS011;45732;52.850;6.896;2023-03-17T11:21:09;9.70;;;5.40;;
59854;SDS011;45732;52.850;6.896;2023-03-17T11:26:54;9.50;;;4.80;;
59854;SDS011;45732;52.850;6.896;2023-03-17T11:34:50;9.50;;;5.00;;
59854;SDS011;45732;52.850;6.896;2023-03-17T11:41:29;11.98;;;4.75;;
59854;SDS011;45732;52.850;6.896;2023-03-17T11:49:07;10.38;;;4.88;;
59854;SDS011;45732;52.850;6.896;2023-03-17T11:57:23;8.88;;;4.78;;
59854;SDS011;45732;52.850;6.896;2023-03-17T12:07:41;10.93;;;5.40;;
59854;SDS011;45732;52.850;6.896;2023-03-17T12:10:30;9.98;;;5.30;;
59854;SDS011;45732;52.850;6.896;2023-03-17T12:13:06;8.65;;;5.18;;
59854;SDS011;45732;52.850;6.896;2023-03-17T12:15:48;8.82;;;5.20;;
59854;SDS011;45732;52.850;6.896;2023-03-17T12:18:29;9.63;;;5.60;;
59854;SDS011;45732;52.850;6.896;2023-03-17T12:21:26;10.60;;;5.70;;
59854;SDS011;45732;52.850;6.896;2023-03-17T12:24:18;10.93;;;5.50;;
59854;SDS011;45732;52.850;6.896;2023-03-17T12:26:59;9.98;;;5.65;;
59854;SDS011;45732;52.850;6.896;2023-03-17T12:29:52;9.98;;;5.95;;
59854;SDS011;45732;52.850;6.896;2023-03-17T12:32:23;9.10;;;5.63;;
59854;SDS011;45732;52.850;6.896;2023-03-17T12:34:58;12.45;;;5.97;;
59854;SDS011;45732;52.850;6.896;2023-03-17T12:37:29;10.43;;;5.07;;
59854;SDS011;45732;52.850;6.896;2023-03-17T12:39:56;9.13;;;4.93;;
59854;SDS011;45732;52.850;6.896;2023-03-17T12:55:25;8.50;;;4.95;;
59854;SDS011;45732;52.850;6.896;2023-03-17T12:57:59;10.48;;;5.80;;
59854;SDS011;45732;52.850;6.896;2023-03-17T13:00:32;10.68;;;5.18;;
59854;SDS011;45732;52.850;6.896;2023-03-17T13:06:02;10.35;;;5.50;;
59854;SDS011;45732;52.850;6.896;2023-03-17T13:08:40;9.82;;;4.93;;
59854;SDS011;45732;52.850;6.896;2023-03-17T13:16:32;9.65;;;5.18;;
59854;SDS011;45732;52.850;6.896;2023-03-17T13:19:14;9.05;;;5.05;;
59854;SDS011;45732;52.850;6.896;2023-03-17T13:27:56;8.55;;;5.28;;
59854;SDS011;45732;52.850;6.896;2023-03-17T13:29:57;8.73;;;5.43;;
59854;SDS011;45732;52.850;6.896;2023-03-17T13:32:50;9.15;;;5.05;;
59854;SDS011;45732;52.850;6.896;2023-03-17T13:35:44;8.65;;;5.60;;
59854;SDS011;45732;52.850;6.896;2023-03-17T13:39:05;9.27;;;5.20;;
59854;SDS011;45732;52.850;6.896;2023-03-17T13:41:21;8.85;;;5.35;;
59854;SDS011;45732;52.850;6.896;2023-03-17T13:44:18;8.45;;;5.40;;
59854;SDS011;45732;52.850;6.896;2023-03-17T13:49:50;9.25;;;5.40;;
59854;SDS011;45732;52.850;6.896;2023-03-17T13:55:27;9.77;;;5.95;;
59854;SDS011;45732;52.850;6.896;2023-03-17T14:00:31;8.13;;;5.30;;
59854;SDS011;45732;52.850;6.896;2023-03-17T14:06:01;8.65;;;5.15;;
59854;SDS011;45732;52.850;6.896;2023-03-17T14:08:33;8.65;;;6.25;;
59854;SDS011;45732;52.850;6.896;2023-03-17T14:11:02;13.57;;;5.80;;
59854;SDS011;45732;52.850;6.896;2023-03-17T14:18:46;9.95;;;5.63;;
59854;SDS011;45732;52.850;6.896;2023-03-17T14:23:56;8.93;;;5.15;;
59854;SDS011;45732;52.850;6.896;2023-03-17T14:26:23;12.15;;;5.93;;
59854;SDS011;45732;52.850;6.896;2023-03-17T14:28:51;11.30;;;6.03;;
59854;SDS011;45732;52.850;6.896;2023-03-17T14:31:24;9.45;;;5.45;;
59854;SDS011;45732;52.850;6.896;2023-03-17T14:33:56;9.40;;;6.15;;
59854;SDS011;45732;52.850;6.896;2023-03-17T14:36:23;11.40;;;5.55;;
59854;SDS011;45732;52.850;6.896;2023-03-17T14:38:50;10.50;;;5.53;;
59854;SDS011;45732;52.850;6.896;2023-03-17T14:41:19;11.02;;;5.70;;
59854;SDS011;45732;52.850;6.896;2023-03-17T14:43:47;10.15;;;5.38;;
59854;SDS011;45732;52.850;6.896;2023-03-17T14:48:47;9.15;;;5.85;;
59854;SDS011;45732;52.850;6.896;2023-03-17T14:53:50;11.80;;;5.90;;
59854;SDS011;45732;52.850;6.896;2023-03-17T14:56:25;13.75;;;7.70;;
59854;SDS011;45732;52.850;6.896;2023-03-17T14:59:06;10.10;;;5.90;;
59854;SDS011;45732;52.850;6.896;2023-03-17T15:01:42;10.45;;;6.07;;
59854;SDS011;45732;52.850;6.896;2023-03-17T15:04:15;10.27;;;5.65;;
59854;SDS011;45732;52.850;6.896;2023-03-17T15:06:50;10.68;;;5.90;;
59854;SDS011;45732;52.850;6.896;2023-03-17T15:14:32;11.45;;;5.78;;
59854;SDS011;45732;52.850;6.896;2023-03-17T15:17:00;10.30;;;5.78;;
59854;SDS011;45732;52.850;6.896;2023-03-17T15:19:36;10.93;;;6.05;;
59854;SDS011;45732;52.850;6.896;2023-03-17T15:22:19;10.98;;;5.95;;
59854;SDS011;45732;52.850;6.896;2023-03-17T15:24:59;9.88;;;6.20;;
59854;SDS011;45732;52.850;6.896;2023-03-17T15:27:25;10.90;;;5.82;;
59854;SDS011;45732;52.850;6.896;2023-03-17T15:29:51;9.32;;;5.80;;
59854;SDS011;45732;52.850;6.896;2023-03-17T15:32:18;11.43;;;5.40;;
59854;SDS011;45732;52.850;6.896;2023-03-17T15:34:50;11.27;;;5.90;;
59854;SDS011;45732;52.850;6.896;2023-03-17T15:37:18;9.40;;;5.30;;
59854;SDS011;45732;52.850;6.896;2023-03-17T15:39:47;10.60;;;5.93;;
59854;SDS011;45732;52.850;6.896;2023-03-17T15:42:14;10.35;;;5.90;;
59854;SDS011;45732;52.850;6.896;2023-03-17T15:44:41;10.00;;;5.70;;
59854;SDS011;45732;52.850;6.896;2023-03-17T15:47:10;10.18;;;5.93;;
59854;SDS011;45732;52.850;6.896;2023-03-17T15:49:41;11.00;;;5.35;;
59854;SDS011;45732;52.850;6.896;2023-03-17T15:52:13;10.38;;;6.10;;
59854;SDS011;45732;52.850;6.896;2023-03-17T15:54:49;11.15;;;5.93;;
59854;SDS011;45732;52.850;6.896;2023-03-17T15:57:15;11.27;;;5.85;;
59854;SDS011;45732;52.850;6.896;2023-03-17T15:59:41;10.15;;;5.32;;
59854;SDS011;45732;52.850;6.896;2023-03-17T16:02:28;11.07;;;5.43;;
59854;SDS011;45732;52.850;6.896;2023-03-17T16:04:55;10.35;;;5.68;;
59854;SDS011;45732;52.850;6.896;2023-03-17T16:07:23;9.68;;;5.40;;
59854;SDS011;45732;52.850;6.896;2023-03-17T16:09:50;10.70;;;6.00;;
59854;SDS011;45732;52.850;6.896;2023-03-17T16:12:16;11.73;;;5.90;;
59854;SDS011;45732;52.850;6.896;2023-03-17T16:14:42;11.95;;;5.97;;
59854;SDS011;45732;52.850;6.896;2023-03-17T16:17:15;10.20;;;5.80;;
59854;SDS011;45732;52.850;6.896;2023-03-17T16:19:43;10.77;;;5.40;;
59854;SDS011;45732;52.850;6.896;2023-03-17T16:22:15;10.13;;;5.90;;
59854;SDS011;45732;52.850;6.896;2023-03-17T16:24:58;10.85;;;5.80;;
59854;SDS011;45732;52.850;6.896;2023-03-17T16:27:24;11.35;;;6.00;;
59854;SDS011;45732;52.850;6.896;2023-03-17T16:29:49;10.48;;;6.00;;
59854;SDS011;45732;52.850;6.896;2023-03-17T16:32:15;9.52;;;6.18;;
59854;SDS011;45732;52.850;6.896;2023-03-17T16:34:41;10.93;;;6.18;;
59854;SDS011;45732;52.850;6.896;2023-03-17T16:37:13;9.43;;;5.78;;
59854;SDS011;45732;52.850;6.896;2023-03-17T16:39:40;12.13;;;6.72;;
59854;SDS011;45732;52.850;6.896;2023-03-17T16:42:24;13.35;;;6.20;;
59854;SDS011;45732;52.850;6.896;2023-03-17T16:44:50;11.07;;;6.80;;
59854;SDS011;45732;52.850;6.896;2023-03-17T16:47:16;10.82;;;6.18;;
59854;SDS011;45732;52.850;6.896;2023-03-17T16:49:42;10.93;;;6.05;;
59854;SDS011;45732;52.850;6.896;2023-03-17T16:52:07;12.60;;;5.75;;
59854;SDS011;45732;52.850;6.896;2023-03-17T16:54:34;10.20;;;6.00;;
59854;SDS011;45732;52.850;6.896;2023-03-17T16:57:00;13.48;;;7.07;;